M I D A S
Marine Information and Data Acquisition System
Tripno 740 of the Zeeleeuw from 2004-06-28 06:41:01 to 2004-06-28 13:31:46
Back to CruiseResearch ActivitiesStationsMapUnderway DataData graphs

EquipmentUnitsComment
TimeDGPSUTC
LatitudeDGPSDM.mWGS84
LongitudeDGPSDM.mWGS84
HeadingGyrodeg 
SOGDGPSknotsSpeed over ground
COGDGPSdegCourse over ground
DepthEcho soundermeters200 kHz
Missing or incorrect values are displayed as -999
Navigation data collected by the RV Zeeleeuw from 2004-06-28 06:41:01 to 2004-06-28 13:31:46
                                                                                    Next 1000 lines
Time Latitude Longitude Heading SOG COG Depth
2004-06-28 06:41:09 51°13.597 2°56.096 125.1 0.1 164 9
2004-06-28 06:41:14 51°13.597 2°56.096 123.4 0.1 182 9.1
2004-06-28 06:41:19 51°13.597 2°56.096 122.1 0.1 195 9
2004-06-28 06:41:24 51°13.596 2°56.096 120.1 0.2 195 9
2004-06-28 06:41:29 51°13.596 2°56.096 118.4 0.1 206 9
2004-06-28 06:41:34 51°13.596 2°56.096 116.7 0.1 233 9.2
2004-06-28 06:41:38 51°13.596 2°56.095 115.4 0.3 270 9.2
2004-06-28 06:41:44 51°13.596 2°56.093 114.7 1 285 9.1
2004-06-28 06:41:49 51°13.597 2°56.09 114.6 1.3 287 9.3
2004-06-28 06:41:54 51°13.598 2°56.087 115 1.6 289 9.6
2004-06-28 06:41:59 51°13.599 2°56.082 116 1.9 291 10
2004-06-28 06:42:04 51°13.6 2°56.078 117 2.4 294 -999
2004-06-28 06:42:09 51°13.602 2°56.073 118.3 2.6 295 -999
2004-06-28 06:42:14 51°13.603 2°56.067 119.1 2.9 295 -999
2004-06-28 06:42:20 51°13.606 2°56.06 119.7 3 296 -999
2004-06-28 06:42:25 51°13.608 2°56.053 120 3.4 297 -999
2004-06-28 06:42:29 51°13.609 2°56.047 120.5 3.6 297 -999
2004-06-28 06:42:34 51°13.612 2°56.039 121.1 3.8 296 -999
2004-06-28 06:42:40 51°13.614 2°56.03 121.5 4 298 -999
2004-06-28 06:42:45 51°13.617 2°56.022 121.9 4.2 299 -999
2004-06-28 06:42:49 51°13.619 2°56.015 122.2 4.3 298 -999
2004-06-28 06:42:54 51°13.622 2°56.007 122.2 4.3 299 -999
2004-06-28 06:43:00 51°13.625 2°55.996 122 4.4 298 -999
2004-06-28 06:43:05 51°13.628 2°55.988 121.6 4.4 298 -999
2004-06-28 06:43:09 51°13.631 2°55.981 121.2 4.4 298 -999
2004-06-28 06:43:14 51°13.634 2°55.972 120.6 4.5 298 -999
2004-06-28 06:43:20 51°13.637 2°55.962 119.9 4.5 297 -999
2004-06-28 06:43:25 51°13.64 2°55.953 119 4.5 297 -999
2004-06-28 06:43:30 51°13.643 2°55.944 117.9 4.5 296 -999
2004-06-28 06:43:34 51°13.645 2°55.937 116.6 4.6 295 -999
2004-06-28 06:43:39 51°13.647 2°55.927 115.1 4.6 294 -999
2004-06-28 06:43:45 51°13.65 2°55.916 113.4 4.6 292 -999
2004-06-28 06:43:49 51°13.652 2°55.908 111.7 4.6 291 -999
2004-06-28 06:43:54 51°13.654 2°55.899 109.8 4.6 289 -999
2004-06-28 06:43:59 51°13.656 2°55.889 107.8 4.6 287 -999
2004-06-28 06:44:05 51°13.658 2°55.878 105.8 4.6 285 -999
2004-06-28 06:44:10 51°13.659 2°55.868 103.7 4.6 283 -999
2004-06-28 06:44:14 51°13.66 2°55.86 101.6 4.6 281 -999
2004-06-28 06:44:19 51°13.661 2°55.85 100.1 4.6 279 -999
2004-06-28 06:44:25 51°13.662 2°55.838 97.8 4.6 277 -999
2004-06-28 06:44:29 51°13.662 2°55.83 96 4.6 275 -999
2004-06-28 06:44:34 51°13.663 2°55.82 94.3 4.5 274 -999
2004-06-28 06:44:40 51°13.663 2°55.809 93.2 4.1 272 -999
2004-06-28 06:44:45 51°13.663 2°55.802 91.9 3.4 271 -999
2004-06-28 06:44:49 51°13.663 2°55.797 89.5 2.7 267 -999
2004-06-28 06:44:54 51°13.663 2°55.793 86.1 2.2 269 -999
2004-06-28 06:44:59 51°13.663 2°55.79 82.9 1.3 266 11.4
2004-06-28 06:45:04 51°13.663 2°55.788 78.6 0.8 273 11.6
2004-06-28 06:45:09 51°13.664 2°55.788 74.7 0.2 316 11.5
2004-06-28 06:45:14 51°13.664 2°55.789 69.5 0.4 26 11.6
2004-06-28 06:45:18 51°13.665 2°55.79 63.6 0.7 40 11.6
2004-06-28 06:45:24 51°13.666 2°55.792 57.1 1.4 37 11.6
2004-06-28 06:45:29 51°13.668 2°55.794 50.4 1.7 36 11.9
2004-06-28 06:45:34 51°13.671 2°55.796 43.5 1.9 32 11.9
2004-06-28 06:45:38 51°13.673 2°55.798 37 2.2 28 12.3
2004-06-28 06:45:43 51°13.676 2°55.8 30.3 2.3 20 12.4
2004-06-28 06:45:49 51°13.679 2°55.802 24.5 2 17 12.7
2004-06-28 06:45:54 51°13.681 2°55.803 20.8 1.5 20 12.9
2004-06-28 06:45:59 51°13.682 2°55.803 17.6 0.7 21 13
2004-06-28 06:46:04 51°13.682 2°55.804 14.1 0.2 103 12.9
2004-06-28 06:46:09 51°13.681 2°55.804 12 0.5 160 12.8
2004-06-28 06:46:14 51°13.68 2°55.805 10.7 1 172 12.7
2004-06-28 06:46:18 51°13.678 2°55.805 9.9 1.3 172 12.6
2004-06-28 06:46:25 51°13.676 2°55.805 9.3 1.3 174 -999
2004-06-28 06:46:30 51°13.675 2°55.805 9.4 0.8 172 -999
2004-06-28 06:46:34 51°13.675 2°55.806 8.7 0.3 72 -999
2004-06-28 06:46:38 51°13.677 2°55.806 4.2 1.4 357 -999
2004-06-28 06:46:45 51°13.681 2°55.805 357 2.6 351 -999
2004-06-28 06:46:49 51°13.685 2°55.803 347.8 3.3 341 -999
2004-06-28 06:46:54 51°13.69 2°55.799 340 3.9 335 14
2004-06-28 06:46:58 51°13.694 2°55.795 332.7 4 326 14.7
2004-06-28 06:47:04 51°13.7 2°55.788 327.3 4.4 323 15.1
2004-06-28 06:47:09 51°13.704 2°55.782 324.8 4.6 320 15.1
2004-06-28 06:47:14 51°13.71 2°55.774 322.9 4.9 320 15.7
2004-06-28 06:47:18 51°13.714 2°55.768 322.2 5.2 318 15.2
2004-06-28 06:47:24 51°13.721 2°55.758 321.8 5.6 318 14.6
2004-06-28 06:47:29 51°13.727 2°55.75 321.8 5.8 317 13.2
2004-06-28 06:47:34 51°13.733 2°55.741 321.7 6 317 12.1
2004-06-28 06:47:40 51°13.741 2°55.73 321.7 6.2 318 11.8
2004-06-28 06:47:44 51°13.747 2°55.722 322.3 6.5 319 11.5
2004-06-28 06:47:49 51°13.754 2°55.713 323.3 6.6 320 11.3
2004-06-28 06:47:54 51°13.761 2°55.703 324.7 6.7 321 11.3
2004-06-28 06:47:58 51°13.767 2°55.696 326.9 6.8 322 11.5
2004-06-28 06:48:04 51°13.776 2°55.685 328.1 7 324 11.7
2004-06-28 06:48:09 51°13.784 2°55.676 329.5 7.1 325 11.6
2004-06-28 06:48:14 51°13.793 2°55.667 331.1 7.2 326 12
2004-06-28 06:48:18 51°13.799 2°55.66 332.3 7.3 328 12
2004-06-28 06:48:24 51°13.81 2°55.65 333.4 7.4 329 12.1
2004-06-28 06:48:28 51°13.817 2°55.644 334.6 7.4 330 12.4
2004-06-28 06:48:34 51°13.828 2°55.634 335.6 7.4 330 12.3
2004-06-28 06:48:39 51°13.837 2°55.626 336.6 7.5 332 12
2004-06-28 06:48:44 51°13.846 2°55.618 337.7 7.5 333 11.7
2004-06-28 06:48:49 51°13.855 2°55.61 338.5 7.6 334 11.8
2004-06-28 06:48:54 51°13.865 2°55.603 339.6 7.6 335 12.1
2004-06-28 06:48:58 51°13.873 2°55.598 340.4 7.6 335 12.3
2004-06-28 06:49:04 51°13.884 2°55.589 340.8 7.7 335 11.7
2004-06-28 06:49:08 51°13.892 2°55.584 341 7.7 335 11.6
2004-06-28 06:49:14 51°13.904 2°55.576 341 7.7 336 11.7
2004-06-28 06:49:19 51°13.914 2°55.569 341.6 7.7 337 11.5
2004-06-28 06:49:24 51°13.923 2°55.562 342.5 7.8 337 11.8
2004-06-28 06:49:29 51°13.933 2°55.555 342.4 7.8 336 12.2
2004-06-28 06:49:34 51°13.944 2°55.548 341.9 7.9 337 12.8
2004-06-28 06:49:39 51°13.953 2°55.541 341.4 7.9 336 13.1
2004-06-28 06:49:44 51°13.963 2°55.534 341.1 7.9 335 13.8
2004-06-28 06:49:49 51°13.973 2°55.527 341.2 8 336 14
2004-06-28 06:49:54 51°13.984 2°55.519 341.4 8.1 336 14.5
2004-06-28 06:49:58 51°13.992 2°55.513 341.4 8.3 335 14.4
2004-06-28 06:50:04 51°14.005 2°55.504 341.3 8.4 336 14
2004-06-28 06:50:09 51°14.016 2°55.497 341.2 8.6 336 13.5
2004-06-28 06:50:13 51°14.025 2°55.49 341.6 8.6 337 13.2
2004-06-28 06:50:17 51°14.034 2°55.484 342 8.7 337 13
2004-06-28 06:50:24 51°14.049 2°55.474 342.2 8.8 337 13.2
2004-06-28 06:50:29 51°14.061 2°55.466 342.9 8.8 338 13
2004-06-28 06:50:34 51°14.072 2°55.459 343.6 8.9 338 13.1
2004-06-28 06:50:38 51°14.081 2°55.453 343.7 8.9 338 13.1
2004-06-28 06:50:44 51°14.095 2°55.444 343.6 9 338 13.3
2004-06-28 06:50:49 51°14.106 2°55.437 343.5 9 338 13.7
2004-06-28 06:50:54 51°14.118 2°55.429 342.8 9 337 13.8
2004-06-28 06:50:58 51°14.127 2°55.423 342.3 9.1 336 14.1
2004-06-28 06:51:04 51°14.142 2°55.413 340.8 9.3 334 14.3
2004-06-28 06:51:08 51°14.151 2°55.405 339.6 9.4 334 14.3
2004-06-28 06:51:13 51°14.163 2°55.396 338.5 9.5 333 14.3
2004-06-28 06:51:18 51°14.174 2°55.385 337.7 9.6 331 14.3
2004-06-28 06:51:24 51°14.188 2°55.372 336.6 9.8 328 14.4
2004-06-28 06:51:29 51°14.2 2°55.36 333.9 9.9 326 14.4
2004-06-28 06:51:34 51°14.211 2°55.347 331.4 10 324 14.3
2004-06-28 06:51:38 51°14.22 2°55.336 329.1 10.1 322 14.2
2004-06-28 06:51:42 51°14.229 2°55.324 326.2 10.3 319 14.3
2004-06-28 06:51:49 51°14.243 2°55.301 323.6 10.4 315 14
2004-06-28 06:51:53 51°14.251 2°55.288 320.6 10.5 314 13.7
2004-06-28 06:51:59 51°14.263 2°55.267 319.3 10.6 313 13.6
2004-06-28 06:52:04 51°14.272 2°55.249 317.8 10.8 310 13.7
2004-06-28 06:52:09 51°14.282 2°55.23 315.9 10.9 310 13.6
2004-06-28 06:52:14 51°14.292 2°55.212 315.4 10.9 310 13.6
2004-06-28 06:52:18 51°14.3 2°55.197 315.5 11 310 13.7
2004-06-28 06:52:24 51°14.312 2°55.175 315.5 11 310 13.5
2004-06-28 06:52:29 51°14.321 2°55.156 314.7 11.1 309 13.4
2004-06-28 06:52:34 51°14.331 2°55.137 314.2 11.1 309 13.4
2004-06-28 06:52:38 51°14.339 2°55.121 313.5 11.2 308 13.3
2004-06-28 06:52:44 51°14.351 2°55.097 313.9 11.5 309 12.9
2004-06-28 06:52:49 51°14.361 2°55.077 314.2 11.7 309 12.9
2004-06-28 06:52:52 51°14.367 2°55.066 314.2 11.8 314 13.3
2004-06-28 06:52:59 51°14.386 2°55.042 318.3 12 320 13.3
2004-06-28 06:53:04 51°14.4 2°55.027 323.4 12.5 325 13.3
2004-06-28 06:53:08 51°14.411 2°55.013 324.6 12.7 324 13.1
2004-06-28 06:53:14 51°14.429 2°54.995 324.6 12.8 326 12.9
2004-06-28 06:53:16 51°14.435 2°54.988 325.7 12.9 326 12.7
2004-06-28 06:53:24 51°14.46 2°54.964 327.4 13.1 328 12.7
2004-06-28 06:53:29 51°14.475 2°54.949 328 13.2 329 12.2
2004-06-28 06:53:34 51°14.491 2°54.934 328.4 13.2 329 12.4
2004-06-28 06:53:39 51°14.507 2°54.919 328.7 13.3 329 12.2
2004-06-28 06:53:44 51°14.522 2°54.904 328.8 13.2 328 12
2004-06-28 06:53:49 51°14.538 2°54.889 328.3 13.2 330 12.2
2004-06-28 06:53:54 51°14.554 2°54.874 328.7 13.2 330 12.1
2004-06-28 06:54:00 51°14.573 2°54.856 329.5 13.2 330 12.1
2004-06-28 06:54:04 51°14.585 2°54.844 329.1 13.2 329 12.1
2004-06-28 06:54:09 51°14.601 2°54.828 328.8 13.2 328 12.1
2004-06-28 06:54:14 51°14.616 2°54.813 328.5 13.2 328 11.9
2004-06-28 06:54:18 51°14.629 2°54.801 328.5 13.2 328 11.9
2004-06-28 06:54:24 51°14.648 2°54.782 328.4 13.3 329 11.8
2004-06-28 06:54:29 51°14.664 2°54.768 328.9 13.3 330 11.6
2004-06-28 06:54:33 51°14.676 2°54.756 329.4 13.3 329 11.9
2004-06-28 06:54:37 51°14.689 2°54.743 329.4 13.3 329 11.8
2004-06-28 06:54:44 51°14.711 2°54.722 329.5 13.3 328 11.8
2004-06-28 06:54:49 51°14.727 2°54.707 329 13.3 329 12.2
2004-06-28 06:54:52 51°14.736 2°54.698 328.9 13.3 329 11.9
2004-06-28 06:54:57 51°14.752 2°54.684 329.5 13.4 330 11.8
2004-06-28 06:55:05 51°14.778 2°54.66 329.6 13.3 330 11.7
2004-06-28 06:55:09 51°14.791 2°54.648 329.9 13.3 330 11.8
2004-06-28 06:55:14 51°14.807 2°54.633 329.8 13.2 330 11.9
2004-06-28 06:55:18 51°14.819 2°54.622 329.7 13.3 330 11.7
2004-06-28 06:55:25 51°14.842 2°54.601 329.3 13.3 330 11.8
2004-06-28 06:55:29 51°14.854 2°54.589 329.6 13.3 330 11.7
2004-06-28 06:55:33 51°14.867 2°54.578 329.6 13.3 330 11.7
2004-06-28 06:55:38 51°14.883 2°54.563 329.6 13.2 330 11.6
2004-06-28 06:55:45 51°14.905 2°54.542 329.6 13.3 330 11.4
2004-06-28 06:55:49 51°14.918 2°54.531 329.8 13.2 330 11.6
2004-06-28 06:55:54 51°14.934 2°54.516 329.6 13.2 330 11.4
2004-06-28 06:55:58 51°14.946 2°54.504 329.5 13.2 329 11.3
2004-06-28 06:56:02 51°14.959 2°54.492 329.3 13.2 329 11.1
2004-06-28 06:56:09 51°14.981 2°54.471 329.3 13.2 329 11
2004-06-28 06:56:14 51°14.997 2°54.456 329.5 13.1 329 10.9
2004-06-28 06:56:18 51°15.009 2°54.444 329.7 13.1 329 11
2004-06-28 06:56:25 51°15.031 2°54.423 329.7 13.2 330 10.9
2004-06-28 06:56:29 51°15.044 2°54.412 329.8 13.3 330 10.8
2004-06-28 06:56:34 51°15.06 2°54.397 330.1 13.2 330 10.8
2004-06-28 06:56:39 51°15.075 2°54.382 329.9 13.3 329 10.8
2004-06-28 06:56:45 51°15.095 2°54.364 330.1 13.3 330 10.9
2004-06-28 06:56:48 51°15.104 2°54.355 330 13.3 330 10.9
2004-06-28 06:56:54 51°15.123 2°54.337 330 13.3 329 11.1
2004-06-28 06:56:58 51°15.136 2°54.325 329.6 13.3 329 11.1
2004-06-28 06:57:04 51°15.155 2°54.307 329.6 13.3 330 11.2
2004-06-28 06:57:09 51°15.171 2°54.293 329.5 13.3 330 11
2004-06-28 06:57:14 51°15.187 2°54.278 329.9 13.3 330 11.2
2004-06-28 06:57:18 51°15.199 2°54.266 329.9 13.3 329 11.3
2004-06-28 06:57:22 51°15.212 2°54.254 330.2 13.3 330 11.2
2004-06-28 06:57:29 51°15.235 2°54.234 330.3 13.3 330 11.2
2004-06-28 06:57:34 51°15.251 2°54.219 330 13.3 329 11.5
2004-06-28 06:57:38 51°15.263 2°54.207 329.5 13.3 329 11.5
2004-06-28 06:57:45 51°15.285 2°54.186 329.6 13.3 329 11.5
2004-06-28 06:57:49 51°15.298 2°54.174 330 13.3 330 11.6
2004-06-28 06:57:51 51°15.304 2°54.168 329.8 13.1 330 11.7
2004-06-28 06:57:58 51°15.327 2°54.148 330.6 13.1 331 11.6
2004-06-28 06:58:05 51°15.349 2°54.128 331 13.2 330 11.8
2004-06-28 06:58:09 51°15.362 2°54.116 330.8 13.2 329 11.9
2004-06-28 06:58:14 51°15.378 2°54.101 330.2 13.2 330 12
2004-06-28 06:58:17 51°15.387 2°54.092 329.6 13.2 329 11.9
2004-06-28 06:58:25 51°15.412 2°54.068 329.6 13.2 329 12.2
2004-06-28 06:58:29 51°15.425 2°54.056 329.5 13.3 329 12.2
2004-06-28 06:58:35 51°15.444 2°54.038 329.6 13.3 329 12.3
2004-06-28 06:58:38 51°15.453 2°54.029 329.8 13.3 329 12.3
2004-06-28 06:58:45 51°15.476 2°54.008 330.3 13.3 330 12.3
2004-06-28 06:58:49 51°15.488 2°53.996 330.4 13.3 329 12.4
2004-06-28 06:58:54 51°15.504 2°53.981 330.1 13.2 329 12.3
2004-06-28 06:58:57 51°15.513 2°53.973 330.2 13.3 329 12.6
2004-06-28 06:59:05 51°15.539 2°53.948 330.2 13.3 329 12.5
2004-06-28 06:59:09 51°15.551 2°53.936 329.9 13.3 329 12.6
2004-06-28 06:59:14 51°15.567 2°53.921 330.1 13.3 330 12.8
2004-06-28 06:59:18 51°15.58 2°53.91 330.3 13.3 330 12.8
2004-06-28 06:59:25 51°15.602 2°53.888 330.4 13.3 328 12.9
2004-06-28 06:59:29 51°15.615 2°53.876 329.9 13.3 330 13
2004-06-28 06:59:34 51°15.631 2°53.861 330.2 13.3 330 13.1
2004-06-28 06:59:38 51°15.644 2°53.85 330.3 13.4 330 13.1
2004-06-28 06:59:45 51°15.666 2°53.829 330.2 13.3 329 13.3
2004-06-28 06:59:49 51°15.679 2°53.817 330 13.3 329 13.3
2004-06-28 06:59:54 51°15.695 2°53.802 330.2 13.3 329 13.4
2004-06-28 06:59:58 51°15.707 2°53.79 330.2 13.4 330 13.4
2004-06-28 07:00:05 51°15.729 2°53.769 330.5 13.3 329 13.4
2004-06-28 07:00:09 51°15.742 2°53.757 330.2 13.3 329 13.4
2004-06-28 07:00:14 51°15.758 2°53.742 329.9 13.3 330 13.4
2004-06-28 07:00:18 51°15.771 2°53.73 330.2 13.4 329 13.5
2004-06-28 07:00:25 51°15.793 2°53.71 330.2 13.3 330 13.5
2004-06-28 07:00:29 51°15.806 2°53.698 329.9 13.3 330 13.5
2004-06-28 07:00:33 51°15.819 2°53.686 330.3 13.3 329 13.7
2004-06-28 07:00:39 51°15.838 2°53.668 329.9 13.2 329 13.6
2004-06-28 07:00:44 51°15.854 2°53.654 330.1 13.2 330 13.7
2004-06-28 07:00:49 51°15.869 2°53.639 330.2 13.2 330 13.7
2004-06-28 07:00:54 51°15.885 2°53.624 330.2 13.2 329 13.8
2004-06-28 07:00:58 51°15.898 2°53.612 330.3 13.2 330 13.8
2004-06-28 07:01:05 51°15.92 2°53.593 330.4 13.1 331 13.9
2004-06-28 07:01:09 51°15.933 2°53.582 330.8 13.1 332 13.9
2004-06-28 07:01:14 51°15.949 2°53.569 332.2 13.2 333 13.8
2004-06-28 07:01:19 51°15.966 2°53.556 333.3 13.2 334 13.9
2004-06-28 07:01:24 51°15.983 2°53.545 335.6 13.3 337 14.2
2004-06-28 07:01:29 51°16 2°53.534 337.6 13.3 339 14
2004-06-28 07:01:34 51°16.018 2°53.523 339.2 13.4 339 14.1
2004-06-28 07:01:39 51°16.035 2°53.513 339.3 13.4 339 14.1
2004-06-28 07:01:44 51°16.053 2°53.503 340.1 13.4 339 14.2
2004-06-28 07:01:49 51°16.07 2°53.493 340.5 13.4 341 14.1
2004-06-28 07:01:54 51°16.088 2°53.483 340.8 13.4 340 14.1
2004-06-28 07:01:59 51°16.106 2°53.473 340.8 13.5 340 14.2
2004-06-28 07:02:04 51°16.123 2°53.463 340.8 13.5 340 14.3
2004-06-28 07:02:09 51°16.14 2°53.452 339.8 13.5 338 14.4
2004-06-28 07:02:14 51°16.158 2°53.44 338.8 13.5 338 14.5
2004-06-28 07:02:18 51°16.172 2°53.431 337.9 13.4 337 14.4
2004-06-28 07:02:23 51°16.188 2°53.419 337 13.4 336 14.5
2004-06-28 07:02:29 51°16.209 2°53.404 336.5 13.4 336 14.5
2004-06-28 07:02:34 51°16.226 2°53.392 335.9 13.5 336 14.5
2004-06-28 07:02:39 51°16.243 2°53.38 335.9 13.4 336 14.5
2004-06-28 07:02:43 51°16.257 2°53.37 335.7 13.4 336 14.5
2004-06-28 07:02:49 51°16.277 2°53.355 335.2 13.4 336 14.5
2004-06-28 07:02:54 51°16.294 2°53.344 335.8 13.4 336 14.5
2004-06-28 07:02:58 51°16.307 2°53.334 335.6 13.3 336 14.6
2004-06-28 07:03:05 51°16.331 2°53.317 335.3 13.3 336 14.6
2004-06-28 07:03:09 51°16.344 2°53.307 335.6 13.2 335 14.5
2004-06-28 07:03:14 51°16.361 2°53.295 335.7 13.3 336 14.5
2004-06-28 07:03:18 51°16.374 2°53.285 336.1 13.3 336 14.5
2004-06-28 07:03:24 51°16.395 2°53.271 335.3 13.3 335 14.6
2004-06-28 07:03:28 51°16.408 2°53.26 335.5 13.3 334 14.6
2004-06-28 07:03:34 51°16.428 2°53.246 334.9 13.3 336 14.4
2004-06-28 07:03:39 51°16.445 2°53.234 335.9 13.3 336 14.6
2004-06-28 07:03:41 51°16.452 2°53.229 335.4 13.4 335 14.6
2004-06-28 07:03:49 51°16.479 2°53.209 335.7 13.4 335 14.7
2004-06-28 07:03:54 51°16.495 2°53.196 335.3 13.4 335 14.6
2004-06-28 07:03:57 51°16.506 2°53.189 335.7 13.4 335 14.5
2004-06-28 07:04:05 51°16.532 2°53.169 335.2 13.4 335 14.5
2004-06-28 07:04:09 51°16.546 2°53.159 335.4 13.3 335 14.4
2004-06-28 07:04:14 51°16.563 2°53.147 335.7 13.4 336 14.6
2004-06-28 07:04:19 51°16.58 2°53.134 335.3 13.4 336 14.1
2004-06-28 07:04:25 51°16.6 2°53.12 335.6 13.3 335 13.9
2004-06-28 07:04:29 51°16.613 2°53.11 335.1 13.3 336 14.3
2004-06-28 07:04:34 51°16.629 2°53.099 335.1 13.1 337 13.7
2004-06-28 07:04:39 51°16.646 2°53.088 335.9 13 337 13.6
2004-06-28 07:04:44 51°16.662 2°53.076 335.5 13 336 13.8
2004-06-28 07:04:49 51°16.679 2°53.064 335.8 13 336 13.7
2004-06-28 07:04:54 51°16.695 2°53.051 335.9 13.1 335 13.7
2004-06-28 07:04:58 51°16.709 2°53.041 335.3 13.1 334 13.8
2004-06-28 07:05:04 51°16.728 2°53.026 335.3 13.2 335 13.7
2004-06-28 07:05:09 51°16.745 2°53.013 335.3 13.2 335 13.4
2004-06-28 07:05:14 51°16.762 2°53.001 335.7 13.2 335 13.3
2004-06-28 07:05:18 51°16.775 2°52.991 335.8 13.2 335 13.2
2004-06-28 07:05:24 51°16.795 2°52.976 335.2 13.2 334 12.8
2004-06-28 07:05:29 51°16.812 2°52.963 335.2 13.2 334 12.2
2004-06-28 07:05:34 51°16.828 2°52.95 335.2 13.2 334 11.6
2004-06-28 07:05:38 51°16.842 2°52.94 335 13.2 335 11.2
2004-06-28 07:05:44 51°16.861 2°52.925 335.5 13.2 334 11
2004-06-28 07:05:49 51°16.878 2°52.912 335.3 13.2 334 11.3
2004-06-28 07:05:54 51°16.894 2°52.899 335.1 13.2 335 11.2
2004-06-28 07:05:58 51°16.907 2°52.889 335.2 13.3 333 11.4
2004-06-28 07:06:04 51°16.928 2°52.874 335.3 13.3 334 11.7
2004-06-28 07:06:09 51°16.944 2°52.861 335.5 13.4 335 11.7
2004-06-28 07:06:14 51°16.961 2°52.848 335.6 13.4 334 11.7
2004-06-28 07:06:18 51°16.974 2°52.837 335.7 13.4 334 11.7
2004-06-28 07:06:22 51°16.988 2°52.828 335.3 13.4 334 11.7
2004-06-28 07:06:29 51°17.012 2°52.81 335.3 13.4 335 12
2004-06-28 07:06:33 51°17.025 2°52.8 335.5 13.5 335 12.2
2004-06-28 07:06:39 51°17.045 2°52.783 335.3 13.5 334 12.2
2004-06-28 07:06:45 51°17.065 2°52.768 335.4 13.4 334 12.5
2004-06-28 07:06:49 51°17.079 2°52.758 335.2 13.4 334 12.3
2004-06-28 07:06:54 51°17.096 2°52.745 335.3 13.5 335 12.4
2004-06-28 07:06:58 51°17.109 2°52.734 335.3 13.5 333 12.4
2004-06-28 07:07:05 51°17.133 2°52.715 334.8 13.6 334 12.1
2004-06-28 07:07:09 51°17.146 2°52.705 335.4 13.5 334 11.9
2004-06-28 07:07:14 51°17.163 2°52.692 335.3 13.5 335 12.2
2004-06-28 07:07:18 51°17.176 2°52.682 335.7 13.4 335 12.1
2004-06-28 07:07:25 51°17.2 2°52.665 335.9 13.4 334 12.1
2004-06-28 07:07:29 51°17.213 2°52.654 335.3 13.4 334 12
2004-06-28 07:07:34 51°17.23 2°52.642 335.6 13.4 335 12.1
2004-06-28 07:07:38 51°17.243 2°52.631 335.3 13.4 333 12.4
2004-06-28 07:07:44 51°17.264 2°52.616 335.3 13.4 335 12.2
2004-06-28 07:07:49 51°17.28 2°52.603 335.3 13.4 334 12.4
2004-06-28 07:07:54 51°17.297 2°52.59 335.3 13.5 335 12.4
2004-06-28 07:07:58 51°17.311 2°52.579 335.5 13.5 333 12.5
2004-06-28 07:08:02 51°17.324 2°52.569 335.3 13.5 335 12.3
2004-06-28 07:08:09 51°17.348 2°52.55 335 13.5 334 12.4
2004-06-28 07:08:13 51°17.361 2°52.54 335.1 13.6 335 12.5
2004-06-28 07:08:17 51°17.374 2°52.529 334.9 13.5 333 12.5
2004-06-28 07:08:25 51°17.401 2°52.507 334.8 13.4 331 12.4
2004-06-28 07:08:29 51°17.413 2°52.494 332.5 13.3 328 12.6
2004-06-28 07:08:35 51°17.431 2°52.475 329.6 13.1 327 12.5
2004-06-28 07:08:38 51°17.44 2°52.465 326.9 13.2 323 12.7
2004-06-28 07:08:45 51°17.46 2°52.439 324.2 13.1 321 12.7
2004-06-28 07:08:49 51°17.471 2°52.424 322.4 13.1 320 12.5
2004-06-28 07:08:54 51°17.484 2°52.404 321.4 13.1 319 12.8
2004-06-28 07:08:59 51°17.498 2°52.385 320.4 13.2 319 12.9
2004-06-28 07:09:03 51°17.508 2°52.369 319.6 13.2 318 12.8
2004-06-28 07:09:09 51°17.525 2°52.346 319.2 13.2 317 12.9
2004-06-28 07:09:14 51°17.538 2°52.326 318.6 13.2 317 12.8
2004-06-28 07:09:18 51°17.549 2°52.311 318.5 13.2 318 12.9
2004-06-28 07:09:22 51°17.559 2°52.294 318.6 13.1 317 12.9
2004-06-28 07:09:29 51°17.578 2°52.267 318.6 13 316 12.9
2004-06-28 07:09:33 51°17.588 2°52.25 316.9 13 314 12.8
2004-06-28 07:09:39 51°17.603 2°52.225 315.5 13 314 12.9
2004-06-28 07:09:45 51°17.618 2°52.2 314.8 13 312 12.6
2004-06-28 07:09:49 51°17.627 2°52.182 313.8 13 312 12.8
2004-06-28 07:09:54 51°17.639 2°52.161 313.2 13 311 12.8
2004-06-28 07:09:59 51°17.651 2°52.139 312.6 13 311 12.8
2004-06-28 07:10:05 51°17.665 2°52.113 312.1 13 311 12.8
2004-06-28 07:10:09 51°17.675 2°52.096 312.4 13 312 12.6
2004-06-28 07:10:14 51°17.687 2°52.074 312.8 13.1 311 12.9
2004-06-28 07:10:18 51°17.697 2°52.057 313.1 13.1 312 13
2004-06-28 07:10:25 51°17.713 2°52.027 313.4 13.1 311 12.5
2004-06-28 07:10:29 51°17.723 2°52.009 312.8 13.1 312 12.7
2004-06-28 07:10:34 51°17.735 2°51.987 312.7 13 311 12.7
2004-06-28 07:10:39 51°17.747 2°51.966 312.3 13 311 12.8
2004-06-28 07:10:45 51°17.761 2°51.94 312.4 13.1 312 12.6
2004-06-28 07:10:49 51°17.771 2°51.923 313 13 312 12.5
2004-06-28 07:10:54 51°17.783 2°51.901 313.3 13.1 312 12.6
2004-06-28 07:10:58 51°17.792 2°51.884 313.3 13 312 12.8
2004-06-28 07:11:05 51°17.809 2°51.854 313.3 13 312 12.7
2004-06-28 07:11:09 51°17.819 2°51.837 313.1 13 312 12.6
2004-06-28 07:11:14 51°17.831 2°51.816 313 13 312 12.6
2004-06-28 07:11:19 51°17.842 2°51.794 313.3 13 312 12.8
2004-06-28 07:11:23 51°17.852 2°51.777 313.3 13 312 12.6
2004-06-28 07:11:29 51°17.866 2°51.752 313.5 13 312 12.7
2004-06-28 07:11:34 51°17.878 2°51.731 313.3 13 312 12.5
2004-06-28 07:11:39 51°17.891 2°51.709 313.5 13.1 312 12.5
2004-06-28 07:11:45 51°17.905 2°51.684 313.4 13 313 12.9
2004-06-28 07:11:49 51°17.915 2°51.667 313.7 13 312 12.9
2004-06-28 07:11:54 51°17.927 2°51.646 313.5 13 313 12.8
2004-06-28 07:11:58 51°17.937 2°51.629 313.2 12.9 313 12.8
2004-06-28 07:12:05 51°17.954 2°51.599 314.1 13 313 12.9
2004-06-28 07:12:09 51°17.964 2°51.582 313.5 13 312 13.2
2004-06-28 07:12:14 51°17.976 2°51.561 313.1 13 313 13.2
2004-06-28 07:12:18 51°17.985 2°51.544 313.7 13 312 13.1
2004-06-28 07:12:25 51°18.002 2°51.515 313.6 13 312 13.2
2004-06-28 07:12:29 51°18.012 2°51.497 313.3 13 312 13.2
2004-06-28 07:12:34 51°18.024 2°51.476 313.5 13.1 312 13.4
2004-06-28 07:12:38 51°18.034 2°51.459 313.6 13 312 13.4
2004-06-28 07:12:45 51°18.051 2°51.429 313.6 13 313 13.5
2004-06-28 07:12:49 51°18.06 2°51.412 313.9 13 311 13.8
2004-06-28 07:12:54 51°18.072 2°51.39 313.4 13.1 311 14
2004-06-28 07:12:58 51°18.082 2°51.373 312.3 13.1 311 13.9
2004-06-28 07:13:03 51°18.093 2°51.351 311.9 13 310 14
2004-06-28 07:13:09 51°18.107 2°51.324 311.5 13.1 310 14.1
2004-06-28 07:13:13 51°18.116 2°51.306 310.9 13 309 14.1
2004-06-28 07:13:19 51°18.13 2°51.279 310.9 13 310 14.3
2004-06-28 07:13:25 51°18.144 2°51.253 310.4 13 310 14.5
2004-06-28 07:13:29 51°18.154 2°51.236 310.5 12.9 311 14.4
2004-06-28 07:13:34 51°18.165 2°51.214 310.8 12.8 311 14.8
2004-06-28 07:13:39 51°18.177 2°51.193 311.2 12.8 310 14.8
2004-06-28 07:13:45 51°18.19 2°51.167 311.3 12.7 310 14.9
2004-06-28 07:13:49 51°18.199 2°51.149 310.5 12.8 308 15.1
2004-06-28 07:13:53 51°18.208 2°51.131 309.1 12.8 307 15.3
2004-06-28 07:13:58 51°18.218 2°51.108 308.4 12.8 307 15.3
2004-06-28 07:14:05 51°18.234 2°51.075 308 12.9 306 15.3
2004-06-28 07:14:09 51°18.242 2°51.057 307.5 12.9 306 15.4
2004-06-28 07:14:15 51°18.255 2°51.03 307.5 12.9 307 15.3
2004-06-28 07:14:18 51°18.261 2°51.016 307.6 12.9 306 15.4
2004-06-28 07:14:25 51°18.276 2°50.984 307.7 12.9 307 15.5
2004-06-28 07:14:29 51°18.285 2°50.966 307.3 12.9 308 15.6
2004-06-28 07:14:34 51°18.296 2°50.943 308 12.9 308 15.6
2004-06-28 07:14:38 51°18.304 2°50.925 308.2 12.9 307 15.7
2004-06-28 07:14:45 51°18.32 2°50.892 307.7 12.9 307 15.7
2004-06-28 07:14:49 51°18.328 2°50.874 307.5 13 307 15.9
2004-06-28 07:14:54 51°18.339 2°50.851 307.8 13 307 15.9
2004-06-28 07:14:58 51°18.348 2°50.833 307.8 13 307 16
2004-06-28 07:15:02 51°18.357 2°50.815 307.8 13 307 16
2004-06-28 07:15:09 51°18.372 2°50.783 308 12.9 307 16.1
2004-06-28 07:15:13 51°18.381 2°50.764 308 13 307 16.1
2004-06-28 07:15:17 51°18.389 2°50.746 307.7 13 307 16.2
2004-06-28 07:15:25 51°18.407 2°50.709 307.7 13 307 16.4
2004-06-28 07:15:29 51°18.415 2°50.691 307.8 13 307 16.5
2004-06-28 07:15:34 51°18.426 2°50.668 308 13 307 16.5
2004-06-28 07:15:38 51°18.435 2°50.649 308.1 13.1 307 16.5
2004-06-28 07:15:45 51°18.45 2°50.617 308.3 13 307 16.4
2004-06-28 07:15:49 51°18.458 2°50.598 308 13 307 16.6
2004-06-28 07:15:54 51°18.469 2°50.575 307.8 13.1 307 16.7
2004-06-28 07:15:59 51°18.48 2°50.553 307.7 13.1 307 16.5
2004-06-28 07:16:03 51°18.489 2°50.534 307.8 12.9 307 16.8
2004-06-28 07:16:09 51°18.502 2°50.507 308 12.9 307 16.7
2004-06-28 07:16:14 51°18.513 2°50.484 307.7 13 307 16.7
2004-06-28 07:16:18 51°18.521 2°50.466 307.9 12.9 307 16.8
2004-06-28 07:16:22 51°18.53 2°50.448 308.3 12.9 308 16.8
2004-06-28 07:16:29 51°18.545 2°50.416 308.3 12.9 307 16.7
2004-06-28 07:16:33 51°18.554 2°50.397 308.1 12.9 307 16.7
2004-06-28 07:16:39 51°18.567 2°50.37 307.9 12.9 307 16.9
2004-06-28 07:16:45 51°18.579 2°50.343 308.3 12.8 306 16.8
2004-06-28 07:16:49 51°18.588 2°50.325 307.7 12.8 306 16.9
2004-06-28 07:16:54 51°18.599 2°50.302 307.7 12.8 307 16.8
2004-06-28 07:16:58 51°18.607 2°50.284 307.9 12.8 307 16.7
2004-06-28 07:17:05 51°18.622 2°50.252 308.3 12.8 307 16.7
2004-06-28 07:17:09 51°18.63 2°50.234 308 12.9 306 16.7
2004-06-28 07:17:14 51°18.641 2°50.211 307.7 12.9 307 16.5
2004-06-28 07:17:18 51°18.65 2°50.192 308.1 12.9 307 16.5
2004-06-28 07:17:25 51°18.665 2°50.161 307.9 12.8 307 16.4
2004-06-28 07:17:29 51°18.674 2°50.143 308.1 12.8 308 16.4
2004-06-28 07:17:34 51°18.684 2°50.12 308.7 12.8 307 16.2
2004-06-28 07:17:39 51°18.695 2°50.097 308.4 12.8 306 16
2004-06-28 07:17:45 51°18.707 2°50.07 307.8 12.8 306 15.8
2004-06-28 07:17:49 51°18.716 2°50.051 307.8 12.9 307 15.7
2004-06-28 07:17:54 51°18.726 2°50.028 307.8 12.9 306 15.4
2004-06-28 07:17:58 51°18.735 2°50.01 307.8 12.9 307 15.4
2004-06-28 07:18:05 51°18.75 2°49.978 308.4 12.9 306 15
2004-06-28 07:18:09 51°18.759 2°49.959 308.1 12.9 306 15.2
2004-06-28 07:18:14 51°18.769 2°49.936 307.7 12.9 306 15.1
2004-06-28 07:18:17 51°18.775 2°49.922 307.6 12.9 306 15.2
2004-06-28 07:18:25 51°18.792 2°49.886 307.9 12.9 306 14.9
2004-06-28 07:18:29 51°18.801 2°49.867 308.1 12.9 307 14.8
2004-06-28 07:18:35 51°18.814 2°49.84 308.4 12.9 307 14.5
2004-06-28 07:18:38 51°18.82 2°49.827 308.3 12.8 307 14
2004-06-28 07:18:45 51°18.835 2°49.795 308.5 12.7 306 13.6
2004-06-28 07:18:49 51°18.843 2°49.777 308.2 12.7 307 13.8
2004-06-28 07:18:54 51°18.854 2°49.754 308.4 12.8 306 13.8
2004-06-28 07:18:58 51°18.862 2°49.736 307.7 12.7 306 13.9
2004-06-28 07:19:02 51°18.87 2°49.718 308.1 12.7 307 13.5
2004-06-28 07:19:09 51°18.885 2°49.687 308.5 12.8 308 13.5
2004-06-28 07:19:13 51°18.894 2°49.669 308.5 12.7 307 13.3
2004-06-28 07:19:19 51°18.907 2°49.642 308.5 12.6 308 13.1
2004-06-28 07:19:25 51°18.92 2°49.616 308.2 12.6 307 13.2
2004-06-28 07:19:29 51°18.928 2°49.598 308.5 12.7 306 13.3
2004-06-28 07:19:34 51°18.938 2°49.575 308.1 12.6 306 13
2004-06-28 07:19:38 51°18.946 2°49.557 307.8 12.5 307 13.3
2004-06-28 07:19:45 51°18.961 2°49.526 308 12.6 307 13.3
2004-06-28 07:19:49 51°18.97 2°49.508 308.5 12.6 307 13.7
2004-06-28 07:19:54 51°18.98 2°49.486 308.2 12.6 307 13.7
2004-06-28 07:19:58 51°18.989 2°49.468 308.4 12.7 307 13.8
2004-06-28 07:20:05 51°19.003 2°49.436 307.9 12.7 306 13.6
2004-06-28 07:20:09 51°19.011 2°49.418 307.7 12.7 306 14
2004-06-28 07:20:14 51°19.022 2°49.396 307.9 12.7 307 14
2004-06-28 07:20:18 51°19.031 2°49.378 308.4 12.8 307 14.4
2004-06-28 07:20:25 51°19.046 2°49.346 308.2 12.8 306 14.7
2004-06-28 07:20:29 51°19.054 2°49.328 308.5 12.9 307 14.8
2004-06-28 07:20:33 51°19.062 2°49.309 308.1 12.9 306 14.8
2004-06-28 07:20:39 51°19.076 2°49.282 308.3 12.9 308 14.9
2004-06-28 07:20:45 51°19.088 2°49.255 308.5 12.9 307 15
2004-06-28 07:20:49 51°19.097 2°49.237 308.3 12.9 308 14.9
2004-06-28 07:20:54 51°19.108 2°49.214 308.7 12.9 307 14.8
2004-06-28 07:20:58 51°19.116 2°49.196 308 12.9 307 15
2004-06-28 07:21:05 51°19.131 2°49.164 308.4 12.9 307 14.8
2004-06-28 07:21:09 51°19.14 2°49.146 308.4 12.9 307 15
2004-06-28 07:21:14 51°19.151 2°49.123 308.4 12.9 307 14.7
2004-06-28 07:21:18 51°19.159 2°49.105 308.1 12.8 308 14.9
2004-06-28 07:21:25 51°19.174 2°49.074 308.4 12.8 307 14.8
2004-06-28 07:21:29 51°19.183 2°49.055 308.2 12.8 306 15.7
2004-06-28 07:21:34 51°19.194 2°49.033 308.1 12.8 307 16.1
2004-06-28 07:21:38 51°19.202 2°49.014 308 12.9 306 16.5
2004-06-28 07:21:45 51°19.217 2°48.983 307.9 13 308 16.8
2004-06-28 07:21:49 51°19.226 2°48.964 308.3 12.9 307 17.2
2004-06-28 07:21:54 51°19.236 2°48.941 308.1 12.9 307 17.4
2004-06-28 07:21:58 51°19.245 2°48.923 308.2 12.9 306 17.6
2004-06-28 07:22:05 51°19.259 2°48.89 307.1 12.9 303 17.8
2004-06-28 07:22:09 51°19.266 2°48.871 304.9 12.9 303 17.9
2004-06-28 07:22:15 51°19.278 2°48.841 304.1 12.8 302 18.1
2004-06-28 07:22:18 51°19.283 2°48.827 303.3 12.9 301 18.1
2004-06-28 07:22:25 51°19.295 2°48.792 302 12.8 300 18.3
2004-06-28 07:22:29 51°19.302 2°48.773 301.5 12.8 300 18.5
2004-06-28 07:22:34 51°19.311 2°48.748 301.4 12.7 300 18.7
2004-06-28 07:22:39 51°19.32 2°48.723 300.8 12.7 299 18.9
2004-06-28 07:22:45 51°19.33 2°48.694 300.9 12.8 299 18.9
2004-06-28 07:22:49 51°19.337 2°48.675 300.5 12.8 299 19.1
2004-06-28 07:22:54 51°19.346 2°48.65 300.5 12.8 299 19.4
2004-06-28 07:22:58 51°19.353 2°48.63 300.7 12.8 300 19.5
2004-06-28 07:23:05 51°19.365 2°48.596 300.7 12.8 300 19.6
2004-06-28 07:23:09 51°19.372 2°48.576 300.9 12.8 299 19.9
2004-06-28 07:23:14 51°19.381 2°48.551 300.3 12.9 299 20
2004-06-28 07:23:18 51°19.388 2°48.532 300.7 12.8 300 20.3
2004-06-28 07:23:25 51°19.401 2°48.498 300.8 12.7 300 20.4
2004-06-28 07:23:29 51°19.408 2°48.478 301.2 12.7 301 20.6
2004-06-28 07:23:33 51°19.415 2°48.459 301.4 12.7 300 20.8
2004-06-28 07:23:39 51°19.425 2°48.429 300.8 12.7 299 21
2004-06-28 07:23:45 51°19.436 2°48.4 300.4 12.7 299 21
2004-06-28 07:23:49 51°19.442 2°48.38 300.4 12.7 298 21.2
2004-06-28 07:23:54 51°19.45 2°48.355 299.1 12.7 298 21.3
2004-06-28 07:23:57 51°19.455 2°48.339 298 12.7 296 21.7
2004-06-28 07:24:05 51°19.467 2°48.299 297.3 12.7 295 21.8
2004-06-28 07:24:09 51°19.473 2°48.278 296.2 12.8 295 22
2004-06-28 07:24:14 51°19.481 2°48.253 296.1 12.8 295 22.2
2004-06-28 07:24:19 51°19.488 2°48.227 295.9 12.7 295 22.5
2004-06-28 07:24:25 51°19.497 2°48.197 296 12.7 295 22.6
2004-06-28 07:24:29 51°19.503 2°48.176 295.7 12.7 294 22.7
2004-06-28 07:24:34 51°19.51 2°48.151 295.4 12.7 295 23
2004-06-28 07:24:38 51°19.516 2°48.131 295.8 12.7 295 23.1
2004-06-28 07:24:44 51°19.525 2°48.1 296 12.7 295 23.4
2004-06-28 07:24:49 51°19.532 2°48.074 295.6 12.7 294 23.5
2004-06-28 07:24:54 51°19.54 2°48.049 295.4 12.7 295 23.6
2004-06-28 07:24:58 51°19.546 2°48.029 295.7 12.6 296 23.9
2004-06-28 07:25:05 51°19.556 2°47.993 296 12.6 295 23.9
2004-06-28 07:25:09 51°19.563 2°47.973 295.9 12.7 296 23.9
2004-06-28 07:25:13 51°19.568 2°47.952 296.2 12.7 295 24.3
2004-06-28 07:25:19 51°19.578 2°47.922 295.7 12.8 296 24.2
2004-06-28 07:25:25 51°19.587 2°47.891 296.1 12.8 295 24.3
2004-06-28 07:25:29 51°19.593 2°47.871 295.9 12.7 295 24.3
2004-06-28 07:25:34 51°19.6 2°47.845 295.2 12.7 294 24.5
2004-06-28 07:25:38 51°19.606 2°47.825 295 12.7 295 24.4
2004-06-28 07:25:44 51°19.615 2°47.794 295.4 12.7 295 24.3
2004-06-28 07:25:49 51°19.622 2°47.769 295.8 12.8 295 24.5
2004-06-28 07:25:53 51°19.628 2°47.748 295.7 12.8 295 24.4
2004-06-28 07:25:59 51°19.637 2°47.718 295.5 12.8 295 24.4
2004-06-28 07:26:04 51°19.645 2°47.692 295.3 12.7 295 24.4
2004-06-28 07:26:09 51°19.652 2°47.667 295.8 12.7 295 24.3
2004-06-28 07:26:14 51°19.66 2°47.641 295.9 12.7 296 24.5
2004-06-28 07:26:18 51°19.666 2°47.621 296.2 12.8 296 24.3
2004-06-28 07:26:24 51°19.676 2°47.591 295.9 12.7 295 24.5
2004-06-28 07:26:29 51°19.683 2°47.565 295.7 12.6 295 24.2
2004-06-28 07:26:33 51°19.689 2°47.545 295.8 12.6 296 24.4
2004-06-28 07:26:39 51°19.698 2°47.515 296.2 12.6 296 24.3
2004-06-28 07:26:45 51°19.707 2°47.485 295.8 12.7 296 24.3
2004-06-28 07:26:49 51°19.713 2°47.465 295.6 12.7 296 24.5
2004-06-28 07:26:54 51°19.721 2°47.44 295.9 12.6 296 24.2
2004-06-28 07:26:59 51°19.728 2°47.414 296.1 12.6 296 24.3
2004-06-28 07:27:03 51°19.734 2°47.393 294.6 12.6 293 24.3
2004-06-28 07:27:09 51°19.742 2°47.362 293.7 12.6 292 24.3
2004-06-28 07:27:14 51°19.748 2°47.337 292.6 12.5 292 24
2004-06-28 07:27:19 51°19.754 2°47.311 292.5 12.5 291 24.1
2004-06-28 07:27:25 51°19.762 2°47.279 291.6 12.6 291 24.1
2004-06-28 07:27:29 51°19.767 2°47.259 291.6 12.6 291 24.1
2004-06-28 07:27:34 51°19.773 2°47.233 291.7 12.5 291 24
2004-06-28 07:27:39 51°19.78 2°47.207 291.8 12.6 291 23.9
2004-06-28 07:27:45 51°19.787 2°47.176 292.2 12.5 292 23.8
2004-06-28 07:27:49 51°19.793 2°47.155 292.2 12.5 291 23.5
2004-06-28 07:27:54 51°19.799 2°47.129 292.4 12.6 291 23.6
2004-06-28 07:27:58 51°19.803 2°47.108 291.9 12.6 290 23.5
2004-06-28 07:28:05 51°19.812 2°47.071 291.4 12.6 290 23.5
2004-06-28 07:28:09 51°19.817 2°47.051 291.2 12.6 290 23.3
2004-06-28 07:28:14 51°19.823 2°47.025 291.5 12.6 290 23.2
2004-06-28 07:28:19 51°19.829 2°46.999 291.3 12.5 290 23.1
2004-06-28 07:28:23 51°19.834 2°46.978 291.7 12.5 291 23
2004-06-28 07:28:29 51°19.841 2°46.947 291.8 12.6 290 22.7
2004-06-28 07:28:34 51°19.847 2°46.921 292 12.6 291 22.5
2004-06-28 07:28:38 51°19.852 2°46.9 292.2 12.5 290 22.2
2004-06-28 07:28:45 51°19.861 2°46.863 292.1 12.6 291 21.2
2004-06-28 07:28:49 51°19.865 2°46.842 291.9 12.6 290 21.9
2004-06-28 07:28:54 51°19.871 2°46.816 291.9 12.6 291 22
2004-06-28 07:28:59 51°19.877 2°46.79 292 12.6 290 21.9
2004-06-28 07:29:04 51°19.883 2°46.764 291.6 12.6 291 21.6
2004-06-28 07:29:08 51°19.888 2°46.743 292.1 12.7 291 20.5
2004-06-28 07:29:14 51°19.896 2°46.711 291.8 12.7 290 21.1
2004-06-28 07:29:18 51°19.9 2°46.69 291.7 12.8 290 20.7
2004-06-28 07:29:24 51°19.908 2°46.658 291.5 12.6 291 20.8
2004-06-28 07:29:28 51°19.913 2°46.637 291.9 12.7 290 19.1
2004-06-28 07:29:34 51°19.92 2°46.606 292 12.7 291 19.9
2004-06-28 07:29:38 51°19.925 2°46.584 291.7 12.6 289 19.9
2004-06-28 07:29:44 51°19.932 2°46.553 291.6 12.7 290 19
2004-06-28 07:29:49 51°19.938 2°46.527 291.7 12.5 290 19
2004-06-28 07:29:54 51°19.944 2°46.501 292.5 12.6 291 19
2004-06-28 07:29:58 51°19.949 2°46.48 292 12.6 290 16.8
2004-06-28 07:30:04 51°19.956 2°46.449 292.3 12.6 290 18.2
2004-06-28 07:30:08 51°19.961 2°46.428 292.2 12.6 290 17.4
2004-06-28 07:30:14 51°19.968 2°46.396 292.1 12.5 291 17.3
2004-06-28 07:30:18 51°19.973 2°46.376 292.5 12.5 291 18.4
2004-06-28 07:30:24 51°19.98 2°46.344 292.2 12.7 290 18.1
2004-06-28 07:30:28 51°19.985 2°46.323 292 12.7 290 18
2004-06-28 07:30:34 51°19.992 2°46.291 292 12.6 289 17.4
2004-06-28 07:30:38 51°19.997 2°46.271 291.7 12.6 290 15.1
2004-06-28 07:30:44 51°20.004 2°46.239 292.1 12.6 290 16.6
2004-06-28 07:30:49 51°20.011 2°46.213 292.2 12.6 291 15.9
2004-06-28 07:30:53 51°20.016 2°46.192 292.6 12.5 291 15.7
2004-06-28 07:30:58 51°20.022 2°46.167 292.4 12.4 290 16.6
2004-06-28 07:31:05 51°20.03 2°46.13 291.9 12.5 290 15.2
2004-06-28 07:31:09 51°20.035 2°46.11 291.6 12.5 291 16.9
2004-06-28 07:31:14 51°20.041 2°46.084 292 12.4 291 15.9
2004-06-28 07:31:19 51°20.047 2°46.058 292.6 12.4 290 16.7
2004-06-28 07:31:25 51°20.055 2°46.027 292.7 12.5 292 17.7
2004-06-28 07:31:29 51°20.06 2°46.007 292.6 12.5 291 18.3
2004-06-28 07:31:30 51°20.061 2°46.002 292.6 12.5 292 16.8
2004-06-28 07:31:39 51°20.072 2°45.955 292.7 12.4 291 17.3
2004-06-28 07:31:45 51°20.08 2°45.925 292.5 12.5 291 17.1
2004-06-28 07:31:49 51°20.085 2°45.904 292.5 12.5 291 15.6
2004-06-28 07:31:53 51°20.09 2°45.884 292.3 12.5 291 16.4
2004-06-28 07:31:58 51°20.096 2°45.858 292.5 12.4 292 17.4
2004-06-28 07:32:05 51°20.105 2°45.822 292.5 12.5 291 18.1
2004-06-28 07:32:09 51°20.11 2°45.801 292.2 12.5 290 18.5
2004-06-28 07:32:14 51°20.116 2°45.775 291.7 12.5 291 18.9
2004-06-28 07:32:18 51°20.121 2°45.754 291.7 12.5 291 19.4
2004-06-28 07:32:24 51°20.129 2°45.723 292.2 12.4 292 19.5
2004-06-28 07:32:29 51°20.135 2°45.698 292.5 12.5 292 15.8
2004-06-28 07:32:34 51°20.142 2°45.672 292.2 12.5 292 17.1
2004-06-28 07:32:39 51°20.148 2°45.647 292.5 12.3 291 20
2004-06-28 07:32:43 51°20.152 2°45.626 290.5 12.4 286 21.4
2004-06-28 07:32:49 51°20.157 2°45.594 287.6 12.4 285 22.5
2004-06-28 07:32:54 51°20.161 2°45.567 285.9 12.4 284 22.9
2004-06-28 07:32:59 51°20.164 2°45.541 284.4 12.2 282 23.5
2004-06-28 07:33:04 51°20.167 2°45.514 283.5 12.3 281 24
2004-06-28 07:33:09 51°20.17 2°45.487 282.7 12.3 281 24.4
2004-06-28 07:33:14 51°20.173 2°45.461 281.9 12.3 280 24.6
2004-06-28 07:33:18 51°20.176 2°45.439 281.6 12.3 280 24.7
2004-06-28 07:33:25 51°20.179 2°45.401 281.2 12.4 280 24.8
2004-06-28 07:33:29 51°20.181 2°45.379 280.9 12.5 279 24.9
2004-06-28 07:33:34 51°20.184 2°45.352 281.1 12.5 280 24.8
2004-06-28 07:33:37 51°20.186 2°45.336 280.9 12.3 279 25.3
2004-06-28 07:33:44 51°20.19 2°45.298 280.9 12.3 279 25
2004-06-28 07:33:49 51°20.193 2°45.27 281.6 12.4 280 25.2
2004-06-28 07:33:54 51°20.196 2°45.244 281.3 12.4 280 25.7
2004-06-28 07:33:59 51°20.199 2°45.217 281.7 12.4 281 25.6
2004-06-28 07:34:03 51°20.202 2°45.195 281.1 12.4 282 25.8
2004-06-28 07:34:09 51°20.205 2°45.163 281.8 12.4 280 25.9
2004-06-28 07:34:14 51°20.209 2°45.136 281.6 12.4 280 26
2004-06-28 07:34:18 51°20.211 2°45.114 281.6 12.5 279 26.2
2004-06-28 07:34:24 51°20.215 2°45.082 281.5 12.5 280 26.3
2004-06-28 07:34:29 51°20.217 2°45.054 281 12.5 279 26.4
2004-06-28 07:34:34 51°20.22 2°45.027 281.1 12.5 280 26.7
2004-06-28 07:34:38 51°20.223 2°45.005 281.6 12.4 280 26.4
2004-06-28 07:34:44 51°20.227 2°44.973 281.7 12.3 281 26.8
2004-06-28 07:34:49 51°20.23 2°44.946 282 12.3 281 26.8
2004-06-28 07:34:54 51°20.233 2°44.919 281.8 12.3 280 26.8
2004-06-28 07:34:59 51°20.236 2°44.892 281.5 12.3 280 26.9
2004-06-28 07:35:04 51°20.239 2°44.865 281.5 12.4 280 26.7
2004-06-28 07:35:08 51°20.241 2°44.844 281.4 12.4 280 27
2004-06-28 07:35:14 51°20.245 2°44.811 281.9 12.4 281 26.9
2004-06-28 07:35:18 51°20.248 2°44.79 281.6 12.4 280 26.9
2004-06-28 07:35:24 51°20.252 2°44.757 281.8 12.5 281 27.2
2004-06-28 07:35:29 51°20.255 2°44.73 282.1 12.5 280 27.2
2004-06-28 07:35:34 51°20.258 2°44.703 281.6 12.5 280 27.3
2004-06-28 07:35:39 51°20.261 2°44.676 281.5 12.5 281 27.4
2004-06-28 07:35:44 51°20.264 2°44.648 281.7 12.5 281 27.6
2004-06-28 07:35:49 51°20.268 2°44.621 282.2 12.5 281 27.6
2004-06-28 07:35:54 51°20.271 2°44.594 282.2 12.5 280 27.7
2004-06-28 07:35:58 51°20.273 2°44.572 281.3 12.6 280 27.9
2004-06-28 07:36:05 51°20.278 2°44.534 281.5 12.5 281 27.9
2004-06-28 07:36:09 51°20.28 2°44.512 281.6 12.5 279 28.2
2004-06-28 07:36:14 51°20.283 2°44.485 281.4 12.5 281 28.5
2004-06-28 07:36:18 51°20.286 2°44.463 281.8 12.5 281 28.6
2004-06-28 07:36:25 51°20.291 2°44.425 282 12.5 281 28.8
2004-06-28 07:36:28 51°20.293 2°44.409 282.3 12.5 281 28.9
2004-06-28 07:36:34 51°20.297 2°44.376 282.3 12.5 281 28.7
2004-06-28 07:36:38 51°20.299 2°44.355 281.6 12.5 280 28.8
2004-06-28 07:36:44 51°20.303 2°44.322 281.2 12.5 281 29
2004-06-28 07:36:49 51°20.307 2°44.295 281.6 12.6 280 29.2
2004-06-28 07:36:54 51°20.31 2°44.267 281.8 12.5 281 29.3
2004-06-28 07:36:58 51°20.313 2°44.246 282.2 12.5 282 29.5
2004-06-28 07:37:04 51°20.317 2°44.213 282.4 12.5 281 29.7
2004-06-28 07:37:09 51°20.321 2°44.186 282.3 12.5 282 29.6
2004-06-28 07:37:14 51°20.324 2°44.159 282.6 12.5 282 29.6
2004-06-28 07:37:18 51°20.327 2°44.137 282.9 12.6 282 29.9
2004-06-28 07:37:24 51°20.331 2°44.104 282.7 12.4 281 29.7
2004-06-28 07:37:29 51°20.334 2°44.077 282.3 12.4 281 29.7
2004-06-28 07:37:34 51°20.337 2°44.05 282.1 12.4 281 29.6
2004-06-28 07:37:38 51°20.34 2°44.029 282.3 12.3 281 29.6
2004-06-28 07:37:45 51°20.345 2°43.991 282.7 12.3 281 29.5
2004-06-28 07:37:49 51°20.348 2°43.97 282.3 12.4 282 29.8
2004-06-28 07:37:55 51°20.352 2°43.938 282.3 12.3 281 29.6
2004-06-28 07:37:59 51°20.354 2°43.916 282 12.3 281 29.7
2004-06-28 07:38:03 51°20.357 2°43.895 281.9 12.2 281 29.8
2004-06-28 07:38:09 51°20.361 2°43.863 281.8 12.2 282 29.6
2004-06-28 07:38:14 51°20.364 2°43.836 282.1 12.3 282 29.7
2004-06-28 07:38:19 51°20.367 2°43.81 282.6 12.3 282 29.7
2004-06-28 07:38:23 51°20.37 2°43.788 282.6 12.4 282 29.7
2004-06-28 07:38:29 51°20.375 2°43.756 282.1 12.3 282 29.6
2004-06-28 07:38:33 51°20.377 2°43.734 282.5 12.4 282 29.8
2004-06-28 07:38:39 51°20.381 2°43.702 282.3 12.3 281 29.8
2004-06-28 07:38:45 51°20.385 2°43.67 281.5 12.4 281 29.8
2004-06-28 07:38:49 51°20.388 2°43.649 281.8 12.3 282 29.4
2004-06-28 07:38:55 51°20.392 2°43.617 282.6 12.4 282 29.4
2004-06-28 07:38:59 51°20.395 2°43.595 282.5 12.5 281 29.5
2004-06-28 07:39:05 51°20.399 2°43.563 282.5 12.5 282 29.7
2004-06-28 07:39:09 51°20.401 2°43.541 281.9 12.5 281 29.3
2004-06-28 07:39:15 51°20.406 2°43.508 281.4 12.5 281 29.4
2004-06-28 07:39:19 51°20.408 2°43.486 281.9 12.5 281 29.6
2004-06-28 07:39:25 51°20.412 2°43.454 282 12.5 281 29.6
2004-06-28 07:39:29 51°20.415 2°43.432 282.1 12.5 281 29.3
2004-06-28 07:39:35 51°20.419 2°43.399 282 12.5 281 29.2
2004-06-28 07:39:39 51°20.421 2°43.378 282 12.4 281 28.8
2004-06-28 07:39:45 51°20.426 2°43.345 282.1 12.5 281 28.7
2004-06-28 07:39:49 51°20.428 2°43.323 282.2 12.5 281 28.6
2004-06-28 07:39:53 51°20.431 2°43.302 282.3 12.6 282 28.6
2004-06-28 07:39:59 51°20.435 2°43.269 282.7 12.5 282 28.2
2004-06-28 07:40:05 51°20.439 2°43.237 282.3 12.5 280 28.2
2004-06-28 07:40:09 51°20.441 2°43.215 282.1 12.5 280 28
2004-06-28 07:40:15 51°20.446 2°43.182 282 12.5 281 27.8
2004-06-28 07:40:19 51°20.448 2°43.161 282.3 12.5 281 27.9
2004-06-28 07:40:25 51°20.452 2°43.128 282.3 12.5 281 27.8
2004-06-28 07:40:29 51°20.455 2°43.106 281.8 12.5 281 27.8
2004-06-28 07:40:35 51°20.459 2°43.073 282.2 12.5 281 27.7
2004-06-28 07:40:39 51°20.461 2°43.052 282.2 12.6 282 27.6
2004-06-28 07:40:45 51°20.465 2°43.019 282.5 12.5 281 27.5
2004-06-28 07:40:49 51°20.468 2°42.997 282.4 12.5 281 26.8
2004-06-28 07:40:55 51°20.472 2°42.964 282.3 12.5 280 27
2004-06-28 07:40:57 51°20.473 2°42.954 282.3 12.5 281 27
2004-06-28 07:41:05 51°20.478 2°42.91 281.8 12.5 281 25.8
2004-06-28 07:41:09 51°20.481 2°42.888 281.6 12.5 280 25.5
2004-06-28 07:41:15 51°20.485 2°42.855 282.3 12.6 282 25.5
2004-06-28 07:41:19 51°20.487 2°42.833 282.3 12.6 281 22.5
2004-06-28 07:41:25 51°20.491 2°42.801 283 12.5 282 24.3
2004-06-28 07:41:29 51°20.494 2°42.779 283 12.5 280 25.2
2004-06-28 07:41:35 51°20.498 2°42.746 282.3 12.5 281 25.4
2004-06-28 07:41:39 51°20.5 2°42.724 282.5 12.4 279 25.6
2004-06-28 07:41:45 51°20.503 2°42.692 281.9 12.5 280 25.3
2004-06-28 07:41:49 51°20.506 2°42.67 281.7 12.4 281 24.5
2004-06-28 07:41:55 51°20.51 2°42.638 282.9 12.4 281 22
2004-06-28 07:41:57 51°20.511 2°42.627 282.3 12.4 281 23.4
2004-06-28 07:42:05 51°20.516 2°42.584 282.3 12.2 279 24.4
2004-06-28 07:42:09 51°20.518 2°42.563 281.8 12.2 280 24.4
2004-06-28 07:42:15 51°20.522 2°42.531 282.1 12.3 280 24.1
2004-06-28 07:42:19 51°20.525 2°42.509 282.5 12.4 281 21.4
2004-06-28 07:42:25 51°20.529 2°42.477 282.6 12.4 281 23
2004-06-28 07:42:29 51°20.531 2°42.455 282.4 12.4 281 23.6
2004-06-28 07:42:35 51°20.535 2°42.423 282.4 12.4 281 22.2
2004-06-28 07:42:39 51°20.538 2°42.402 282.3 12.5 281 21.5
2004-06-28 07:42:45 51°20.541 2°42.369 281.9 12.3 280 22.5
2004-06-28 07:42:49 51°20.544 2°42.348 281.6 12.3 281 22.8
2004-06-28 07:42:55 51°20.547 2°42.315 282.3 12.4 281 23.1
2004-06-28 07:42:57 51°20.549 2°42.305 282.1 12.5 280 20.5
2004-06-28 07:43:05 51°20.553 2°42.261 281.9 12.4 280 20.8
2004-06-28 07:43:09 51°20.556 2°42.24 281.8 12.4 280 21.4
2004-06-28 07:43:15 51°20.559 2°42.207 282.1 12.5 281 21.8
2004-06-28 07:43:19 51°20.562 2°42.186 282.1 12.4 280 19.8
2004-06-28 07:43:25 51°20.565 2°42.154 281.7 12.3 278 18.5
2004-06-28 07:43:29 51°20.567 2°42.132 280.8 12.3 279 20.5
2004-06-28 07:43:35 51°20.57 2°42.1 280.3 12.2 277 21.2
2004-06-28 07:43:39 51°20.571 2°42.078 279.6 12.4 278 21.1
2004-06-28 07:43:45 51°20.575 2°42.046 279.7 12.2 279 21.7
2004-06-28 07:43:49 51°20.577 2°42.025 280 12.1 278 22.1
2004-06-28 07:43:54 51°20.579 2°41.998 279.6 12.2 277 23.2
2004-06-28 07:43:59 51°20.581 2°41.972 279.4 12.2 277 23.6
2004-06-28 07:44:05 51°20.583 2°41.94 278.8 12.2 277 21.7
2004-06-28 07:44:09 51°20.586 2°41.918 279.4 12.2 278 21.6
2004-06-28 07:44:15 51°20.588 2°41.886 279.3 12.2 277 21.9
2004-06-28 07:44:19 51°20.59 2°41.865 278.9 12.2 278 22.4
2004-06-28 07:44:23 51°20.592 2°41.843 279 12.3 278 22.9
2004-06-28 07:44:29 51°20.594 2°41.811 279.4 12.3 277 22.9
2004-06-28 07:44:35 51°20.597 2°41.778 278.9 12.4 277 23.4
2004-06-28 07:44:39 51°20.599 2°41.757 279.2 12.3 278 23.5
2004-06-28 07:44:45 51°20.601 2°41.724 279.1 12.3 277 24.3
2004-06-28 07:44:49 51°20.603 2°41.702 278.8 12.4 279 24.3
2004-06-28 07:44:55 51°20.606 2°41.67 279.4 12.4 278 24.7
2004-06-28 07:44:59 51°20.608 2°41.648 279.7 12.3 278 25.1
2004-06-28 07:45:05 51°20.611 2°41.616 279.4 12.4 278 20.9
2004-06-28 07:45:09 51°20.613 2°41.594 279.4 12.4 278 20.9
2004-06-28 07:45:15 51°20.616 2°41.562 279.5 12.4 278 22.1
2004-06-28 07:45:19 51°20.617 2°41.54 279.5 12.3 278 23.4
2004-06-28 07:45:25 51°20.62 2°41.508 279 12.3 277 24.7
2004-06-28 07:45:29 51°20.622 2°41.486 278.5 12.4 279 25.6
2004-06-28 07:45:35 51°20.625 2°41.454 279.4 12.4 278 26.3
2004-06-28 07:45:39 51°20.627 2°41.432 279.3 12.3 278 26.7
2004-06-28 07:45:45 51°20.629 2°41.4 278.3 12.3 277 26.8
2004-06-28 07:45:49 51°20.63 2°41.378 278.5 12.3 277 27.3
2004-06-28 07:45:54 51°20.633 2°41.351 278.6 12.3 278 28.1
2004-06-28 07:45:59 51°20.635 2°41.324 279.2 12.3 278 29
2004-06-28 07:46:05 51°20.638 2°41.291 279.6 12.4 279 29.5
2004-06-28 07:46:09 51°20.64 2°41.269 279.5 12.4 278 29.9
2004-06-28 07:46:15 51°20.643 2°41.237 279.7 12.4 278 29.8
2004-06-28 07:46:19 51°20.644 2°41.215 278.8 12.4 277 30
2004-06-28 07:46:25 51°20.647 2°41.183 279.2 12.4 278 29.9
2004-06-28 07:46:29 51°20.649 2°41.161 279.4 12.4 277 29.8
2004-06-28 07:46:35 51°20.652 2°41.128 279.1 12.4 278 29.8
2004-06-28 07:46:39 51°20.654 2°41.106 278.7 12.5 277 29.4
2004-06-28 07:46:45 51°20.656 2°41.073 279.1 12.4 278 29
2004-06-28 07:46:49 51°20.659 2°41.052 279.4 12.4 279 29
2004-06-28 07:46:55 51°20.662 2°41.019 279.7 12.4 279 28.7
2004-06-28 07:46:59 51°20.664 2°40.997 279.8 12.5 279 28.7
2004-06-28 07:47:03 51°20.665 2°40.975 279.1 12.4 277 28.6
2004-06-28 07:47:09 51°20.668 2°40.943 279 12.4 278 28.3
2004-06-28 07:47:15 51°20.671 2°40.91 278.9 12.4 277 28.4
2004-06-28 07:47:19 51°20.673 2°40.888 279.1 12.5 278 28.4
2004-06-28 07:47:25 51°20.676 2°40.855 279.4 12.4 278 28.6
2004-06-28 07:47:29 51°20.678 2°40.833 279.4 12.4 277 28.6
2004-06-28 07:47:35 51°20.681 2°40.801 279.4 12.5 279 28.7
2004-06-28 07:47:39 51°20.683 2°40.779 279.9 12.4 278 28.9
2004-06-28 07:47:45 51°20.685 2°40.746 279.1 12.5 277 28.6
2004-06-28 07:47:49 51°20.687 2°40.724 278.7 12.5 278 28.6
2004-06-28 07:47:55 51°20.69 2°40.691 278.9 12.4 277 29.1
2004-06-28 07:47:59 51°20.691 2°40.669 278 12.4 277 29.1
2004-06-28 07:48:05 51°20.694 2°40.636 277.9 12.5 277 29
2004-06-28 07:48:09 51°20.695 2°40.614 278.3 12.4 276 29.4
2004-06-28 07:48:14 51°20.697 2°40.587 278 12.4 277 29.6
2004-06-28 07:48:19 51°20.699 2°40.559 278 12.3 276 29.8
2004-06-28 07:48:25 51°20.702 2°40.527 277.5 12.4 277 29.7
2004-06-28 07:48:29 51°20.703 2°40.505 278.2 12.4 277 29.7
2004-06-28 07:48:35 51°20.706 2°40.472 278.7 12.4 278 30
2004-06-28 07:48:39 51°20.707 2°40.45 278.5 12.4 276 29.8
2004-06-28 07:48:45 51°20.71 2°40.417 278.1 12.4 278 29.9
2004-06-28 07:48:49 51°20.711 2°40.395 278.3 12.4 276 29.8
2004-06-28 07:48:54 51°20.713 2°40.368 278.4 12.5 276 29.7
2004-06-28 07:48:59 51°20.715 2°40.34 277.9 12.4 275 28.8
2004-06-28 07:49:05 51°20.717 2°40.308 277.7 12.5 277 28.6
2004-06-28 07:49:09 51°20.719 2°40.285 277.9 12.6 275 28.9
2004-06-28 07:49:15 51°20.721 2°40.253 278 12.5 278 29.2
2004-06-28 07:49:19 51°20.722 2°40.23 278.1 12.5 276 29.1
2004-06-28 07:49:25 51°20.725 2°40.198 277.8 12.5 276 29.2
2004-06-28 07:49:29 51°20.727 2°40.176 278.4 12.4 276 29.5
2004-06-28 07:49:33 51°20.729 2°40.154 278.2 12.4 277 29.6
2004-06-28 07:49:37 51°20.73 2°40.132 277.8 12.4 276 29.6
2004-06-28 07:49:45 51°20.733 2°40.088 277.7 12.5 277 29.7
2004-06-28 07:49:49 51°20.734 2°40.066 278.1 12.5 276 29.6
2004-06-28 07:49:53 51°20.736 2°40.044 278.1 12.5 277 29.6
2004-06-28 07:49:59 51°20.739 2°40.011 277.9 12.6 276 29.3
2004-06-28 07:50:03 51°20.74 2°39.989 278.4 12.4 277 29.3
2004-06-28 07:50:09 51°20.743 2°39.956 278.4 12.5 277 28.9
2004-06-28 07:50:15 51°20.745 2°39.923 278.2 12.6 277 28.9
2004-06-28 07:50:19 51°20.747 2°39.901 278.2 12.5 277 28.6
2004-06-28 07:50:25 51°20.749 2°39.867 277.4 12.6 276 28.5
2004-06-28 07:50:29 51°20.751 2°39.845 277.9 12.5 277 28.4
2004-06-28 07:50:35 51°20.753 2°39.813 278.3 12.5 277 28.3
2004-06-28 07:50:39 51°20.755 2°39.791 278.5 12.5 277 28.4
2004-06-28 07:50:45 51°20.758 2°39.758 278.5 12.5 277 28.4
2004-06-28 07:50:49 51°20.759 2°39.735 278 12.6 277 28.5
2004-06-28 07:50:54 51°20.762 2°39.708 278.7 12.5 278 28.4
2004-06-28 07:50:59 51°20.763 2°39.681 278.2 12.5 276 28.5
2004-06-28 07:51:05 51°20.766 2°39.648 278.1 12.5 277 28.5
2004-06-28 07:51:09 51°20.768 2°39.626 278.3 12.5 277 28.3
2004-06-28 07:51:15 51°20.77 2°39.593 278.1 12.5 276 28.1
2004-06-28 07:51:18 51°20.771 2°39.576 277.9 12.5 277 27.6
2004-06-28 07:51:25 51°20.774 2°39.537 278.2 12.5 277 27.5
2004-06-28 07:51:29 51°20.776 2°39.515 278.7 12.5 277 27.5
2004-06-28 07:51:33 51°20.778 2°39.493 278.2 12.6 277 27.8
2004-06-28 07:51:39 51°20.781 2°39.46 278.7 12.5 277 27.5
2004-06-28 07:51:45 51°20.783 2°39.427 278.5 12.5 277 27.6
2004-06-28 07:51:49 51°20.784 2°39.405 278.1 12.5 277 27.5
2004-06-28 07:51:54 51°20.786 2°39.378 277.8 12.5 276 27.3
2004-06-28 07:51:59 51°20.789 2°39.35 278.3 12.4 278 27.4
2004-06-28 07:52:05 51°20.791 2°39.317 278.4 12.5 275 27.7
2004-06-28 07:52:09 51°20.792 2°39.296 278 12.3 277 27.7
2004-06-28 07:52:14 51°20.795 2°39.268 278.2 12.4 277 27.7
2004-06-28 07:52:18 51°20.796 2°39.246 278.7 12.4 278 27.6
2004-06-28 07:52:25 51°20.799 2°39.208 278.7 12.5 277 27.6
2004-06-28 07:52:29 51°20.801 2°39.186 278.3 12.5 277 27.3
2004-06-28 07:52:35 51°20.803 2°39.153 277.8 12.5 276 27.1
2004-06-28 07:52:38 51°20.805 2°39.136 278 12.6 278 27
2004-06-28 07:52:45 51°20.808 2°39.098 278.7 12.5 278 27.4
2004-06-28 07:52:50 51°20.81 2°39.07 278.1 12.5 277 27.6
2004-06-28 07:52:54 51°20.811 2°39.048 278.1 12.5 276 27.6
2004-06-28 07:52:59 51°20.814 2°39.02 277.9 12.5 277 27.6
2004-06-28 07:53:05 51°20.816 2°38.987 278.4 12.5 277 27.4
2004-06-28 07:53:10 51°20.819 2°38.96 278 12.5 278 27.1
2004-06-28 07:53:15 51°20.821 2°38.932 278.5 12.6 277 26.2
2004-06-28 07:53:19 51°20.822 2°38.911 278.5 12.4 277 27.1
2004-06-28 07:53:25 51°20.825 2°38.878 277.8 12.4 277 27.7
2004-06-28 07:53:30 51°20.827 2°38.85 278 12.5 277 27.5
2004-06-28 07:53:35 51°20.829 2°38.823 278.1 12.5 277 27.6
2004-06-28 07:53:39 51°20.831 2°38.801 278.1 12.5 277 27.1
2004-06-28 07:53:44 51°20.833 2°38.773 278.1 12.5 278 26.8
2004-06-28 07:53:50 51°20.835 2°38.74 278.6 12.5 276 26
2004-06-28 07:53:54 51°20.837 2°38.718 278.2 12.4 277 27.1
2004-06-28 07:53:58 51°20.839 2°38.696 278 12.4 277 27
2004-06-28 07:54:03 51°20.841 2°38.669 278.6 12.4 277 27.1
2004-06-28 07:54:10 51°20.844 2°38.631 278 12.4 277 27.2
2004-06-28 07:54:15 51°20.846 2°38.603 278.1 12.5 277 27
2004-06-28 07:54:19 51°20.848 2°38.581 278 12.5 277 26.8
2004-06-28 07:54:25 51°20.85 2°38.549 278.7 12.4 277 26.7
2004-06-28 07:54:30 51°20.853 2°38.521 278.4 12.5 277 26.9
2004-06-28 07:54:35 51°20.855 2°38.494 277.9 12.5 277 26.7
2004-06-28 07:54:39 51°20.857 2°38.472 278.3 12.5 278 26.5
2004-06-28 07:54:45 51°20.86 2°38.439 278.5 12.4 278 25.7
2004-06-28 07:54:50 51°20.862 2°38.412 278.4 12.5 277 26.7
2004-06-28 07:54:55 51°20.864 2°38.384 278.2 12.5 277 26.9
2004-06-28 07:54:59 51°20.865 2°38.362 277.9 12.5 277 26.5
2004-06-28 07:55:05 51°20.868 2°38.33 278.1 12.4 277 25.7
2004-06-28 07:55:10 51°20.87 2°38.302 278.1 12.5 277 25.9
2004-06-28 07:55:15 51°20.872 2°38.274 278.2 12.5 278 26.7
2004-06-28 07:55:19 51°20.874 2°38.252 278.7 12.5 277 26.6
2004-06-28 07:55:25 51°20.877 2°38.22 278.1 12.5 277 26.5
2004-06-28 07:55:29 51°20.878 2°38.197 277.9 12.6 277 26.5
2004-06-28 07:55:35 51°20.881 2°38.164 278.4 12.5 277 26.2
2004-06-28 07:55:39 51°20.882 2°38.142 278.3 12.5 277 26.7
2004-06-28 07:55:45 51°20.885 2°38.109 278.3 12.5 278 26.9
2004-06-28 07:55:50 51°20.887 2°38.082 278.6 12.5 278 26.6
2004-06-28 07:55:54 51°20.889 2°38.06 278.8 12.5 276 25.4
2004-06-28 07:55:59 51°20.891 2°38.033 278.1 12.5 277 24.6
2004-06-28 07:56:05 51°20.893 2°38 277.5 12.4 276 26.7
2004-06-28 07:56:10 51°20.895 2°37.972 277.7 12.4 277 27
2004-06-28 07:56:15 51°20.897 2°37.945 277.9 12.5 276 26.8
2004-06-28 07:56:19 51°20.899 2°37.923 278.1 12.5 277 27
2004-06-28 07:56:25 51°20.901 2°37.89 278 12.4 275 27.2
2004-06-28 07:56:29 51°20.903 2°37.868 278.1 12.5 277 27.2
2004-06-28 07:56:35 51°20.905 2°37.835 278.2 12.5 277 26.9
2004-06-28 07:56:38 51°20.907 2°37.818 278.2 12.5 278 27.1
2004-06-28 07:56:45 51°20.91 2°37.78 278.6 12.5 277 27.3
2004-06-28 07:56:50 51°20.912 2°37.752 278.3 12.6 277 26.9
2004-06-28 07:56:54 51°20.914 2°37.73 278.5 12.4 277 26.6
2004-06-28 07:56:59 51°20.916 2°37.703 278.3 12.5 277 25.5
2004-06-28 07:57:05 51°20.918 2°37.67 278.4 12.5 277 26.9
2004-06-28 07:57:10 51°20.92 2°37.643 278.6 12.3 276 27.3
2004-06-28 07:57:15 51°20.922 2°37.615 278 12.4 277 27.1
2004-06-28 07:57:19 51°20.925 2°37.593 278.4 12.5 278 27.4
2004-06-28 07:57:25 51°20.927 2°37.561 278.8 12.5 277 26.8
2004-06-28 07:57:30 51°20.929 2°37.533 278.4 12.4 277 25.5
2004-06-28 07:57:35 51°20.931 2°37.506 278.4 12.4 278 26.7
2004-06-28 07:57:39 51°20.933 2°37.484 278.6 12.5 277 26.9
2004-06-28 07:57:45 51°20.935 2°37.451 278.1 12.5 277 25.7
2004-06-28 07:57:50 51°20.937 2°37.424 278.2 12.5 277 26.5
2004-06-28 07:57:55 51°20.939 2°37.397 278.3 12.5 278 27.2
2004-06-28 07:57:59 51°20.941 2°37.375 278.4 12.4 278 27
2004-06-28 07:58:05 51°20.943 2°37.342 278.8 12.4 277 27
2004-06-28 07:58:10 51°20.946 2°37.315 278.5 12.3 277 26.7
2004-06-28 07:58:15 51°20.947 2°37.288 278.1 12.4 276 25.6
2004-06-28 07:58:19 51°20.949 2°37.266 277.9 12.5 278 25.7
2004-06-28 07:58:25 51°20.952 2°37.233 278.5 12.5 277 26.2
2004-06-28 07:58:29 51°20.954 2°37.212 278.3 12.4 277 26.1
2004-06-28 07:58:35 51°20.956 2°37.179 278 12.4 277 25.7
2004-06-28 07:58:39 51°20.958 2°37.157 278.2 12.3 278 24.5
2004-06-28 07:58:45 51°20.96 2°37.125 278.3 12.3 276 25.5
2004-06-28 07:58:49 51°20.963 2°37.103 278.6 12.4 278 25.4
2004-06-28 07:58:55 51°20.965 2°37.071 278.1 12.3 276 24.7
2004-06-28 07:58:59 51°20.967 2°37.049 278.5 12.3 279 25.7
2004-06-28 07:59:05 51°20.969 2°37.017 278.5 12.3 277 26.1
2004-06-28 07:59:10 51°20.971 2°36.99 278.6 12.4 276 24.4
2004-06-28 07:59:15 51°20.973 2°36.962 278.3 12.4 277 25
2004-06-28 07:59:19 51°20.975 2°36.941 278.6 12.3 277 25.9
2004-06-28 07:59:25 51°20.978 2°36.908 278.3 12.3 277 26.3
2004-06-28 07:59:29 51°20.979 2°36.887 278.1 12.3 276 24.9
2004-06-28 07:59:35 51°20.981 2°36.855 278 12.2 277 24.7
2004-06-28 07:59:39 51°20.983 2°36.833 277.8 12.2 276 25.9
2004-06-28 07:59:43 51°20.984 2°36.812 278 12.3 277 26.5
2004-06-28 07:59:50 51°20.987 2°36.774 278.3 12.2 276 26.8
2004-06-28 07:59:54 51°20.989 2°36.752 278.1 12.3 277 26.1
2004-06-28 07:59:59 51°20.991 2°36.725 278 12.1 276 25.2
2004-06-28 08:00:05 51°20.992 2°36.693 277.9 12.3 276 26.6
2004-06-28 08:00:09 51°20.994 2°36.671 277.9 12.3 278 27.2
2004-06-28 08:00:15 51°20.997 2°36.639 278.5 12.2 277 27.3
2004-06-28 08:00:19 51°20.999 2°36.617 278.7 12.3 277 26.7
2004-06-28 08:00:25 51°21.001 2°36.584 278.5 12.4 278 25.5
2004-06-28 08:00:30 51°21.003 2°36.558 277.7 12.3 276 27.3
2004-06-28 08:00:34 51°21.005 2°36.536 278 12.3 277 27.9
2004-06-28 08:00:39 51°21.007 2°36.508 277.9 12.4 276 28.3
2004-06-28 08:00:45 51°21.01 2°36.476 277.9 12.4 277 28.3
2004-06-28 08:00:49 51°21.011 2°36.454 278.8 12.4 274 25.2
2004-06-28 08:00:55 51°21.014 2°36.421 277.9 12.4 278 26.7
2004-06-28 08:00:58 51°21.015 2°36.405 278.3 12.3 277 28.2
2004-06-28 08:01:05 51°21.018 2°36.367 278.5 12.5 278 28.9
2004-06-28 08:01:10 51°21.02 2°36.34 278.6 12.3 277 29.7
2004-06-28 08:01:13 51°21.021 2°36.323 278.5 12.3 276 29.1
2004-06-28 08:01:18 51°21.023 2°36.296 277.9 12.3 277 27.1
2004-06-28 08:01:25 51°21.026 2°36.258 278.1 12.4 276 28.7
2004-06-28 08:01:29 51°21.028 2°36.236 278 12.4 278 29.6
2004-06-28 08:01:34 51°21.03 2°36.209 278.5 12.4 276 29.7
2004-06-28 08:01:39 51°21.032 2°36.182 277.8 12.4 277 27.8
2004-06-28 08:01:45 51°21.034 2°36.149 278.4 12.4 277 26.9
2004-06-28 08:01:50 51°21.037 2°36.123 277.9 12.3 279 28.6
2004-06-28 08:01:55 51°21.039 2°36.095 278.7 12.3 278 29.2
2004-06-28 08:01:59 51°21.041 2°36.074 278.4 12.4 278 30
2004-06-28 08:02:05 51°21.043 2°36.041 278.3 12.4 278 30.4
2004-06-28 08:02:09 51°21.045 2°36.02 278.1 12.4 277 29.4
2004-06-28 08:02:14 51°21.048 2°35.993 278.4 12.3 279 28.1
2004-06-28 08:02:19 51°21.05 2°35.967 278.8 12.3 277 29.5
2004-06-28 08:02:25 51°21.053 2°35.934 278.4 12.4 279 30.8
2004-06-28 08:02:30 51°21.055 2°35.908 278.7 12.3 277 31.4
2004-06-28 08:02:34 51°21.057 2°35.886 278.3 12.3 277 29
2004-06-28 08:02:38 51°21.059 2°35.865 278.1 12.3 277 28.7
2004-06-28 08:02:43 51°21.061 2°35.838 277.9 12.3 277 30.8
2004-06-28 08:02:50 51°21.065 2°35.799 278.6 12.3 278 30.2
2004-06-28 08:02:55 51°21.067 2°35.772 278.4 12.4 277 30.7
2004-06-28 08:02:58 51°21.069 2°35.756 278.1 12.4 278 30.5
2004-06-28 08:03:05 51°21.072 2°35.718 278.7 12.4 278 31.9
2004-06-28 08:03:10 51°21.073 2°35.691 278.1 12.4 276 32.9
2004-06-28 08:03:15 51°21.076 2°35.663 277.4 12.4 278 33.3
2004-06-28 08:03:19 51°21.078 2°35.641 277.9 12.5 278 33.4
2004-06-28 08:03:25 51°21.081 2°35.609 278.3 12.4 278 33.7
2004-06-28 08:03:30 51°21.083 2°35.581 278.5 12.5 277 32.4
2004-06-28 08:03:33 51°21.084 2°35.565 277.9 12.6 278 30
2004-06-28 08:03:39 51°21.087 2°35.532 278.5 12.5 279 31.1
2004-06-28 08:03:45 51°21.09 2°35.499 277.9 12.5 277 32.1
2004-06-28 08:03:49 51°21.092 2°35.477 278 12.5 279 31.9
2004-06-28 08:03:55 51°21.094 2°35.444 278.7 12.5 277 31.9
2004-06-28 08:03:59 51°21.096 2°35.422 278.2 12.5 278 32.2
2004-06-28 08:04:03 51°21.098 2°35.4 278 12.5 277 32.8
2004-06-28 08:04:10 51°21.102 2°35.362 278.1 12.5 278 32.6
2004-06-28 08:04:14 51°21.104 2°35.34 278.4 12.3 278 32.1
2004-06-28 08:04:19 51°21.106 2°35.313 278.1 12.4 278 33.4